Time;durP1;ratioP1;P1;durP2;ratioP2;P2;SDS_P1;SDS_P2;PMS_P1;PMS_P2;Temp;Humidity;BMP_temperature;BMP_pressure;BME280_temperature;BME280_humidity;BME280_pressure;Samples;Min_cycle;Max_cycle;Signal;HPM_P1;HPM_P2
2021/03/29 00:03:22;;;;;;;58.42;22.25;;;;;;;;;;8292139;28;20440;-66
2021/03/29 00:07:30;;;;;;;64.30;22.55;;;;;;;;;;8292987;28;20103;-66
2021/03/29 00:11:36;;;;;;;70.82;23.73;;;;;;;;;;8290498;28;20762;-66
2021/03/29 00:15:46;;;;;;;59.28;23.15;;;;;;;;;;8292556;28;20387;-67
2021/03/29 00:19:51;;;;;;;54.63;22.17;;;;;;;;;;8274997;28;20435;-67
2021/03/29 00:23:58;;;;;;;66.55;24.17;;;;;;;;;;8290675;28;20341;-66
2021/03/29 00:28:04;;;;;;;65.97;23.65;;;;;;;;;;8289875;28;20479;-67
2021/03/29 00:32:09;;;;;;;63.42;22.95;;;;;;;;;;8288669;28;20451;-67
2021/03/29 00:36:17;;;;;;;56.90;22.85;;;;;;;;;;8290552;28;20490;-67
2021/03/29 00:40:22;;;;;;;68.57;22.50;;;;;;;;;;8291398;28;20082;-66
2021/03/29 00:44:28;;;;;;;60.70;21.85;;;;;;;;;;8289553;28;20384;-66
2021/03/29 00:48:35;;;;;;;60.30;21.38;;;;;;;;;;8287587;28;20474;-66
2021/03/29 00:52:41;;;;;;;50.17;20.60;;;;;;;;;;8289442;28;20470;-66
2021/03/29 00:56:46;;;;;;;49.92;19.70;;;;;;;;;;8294085;28;20380;-68
2021/03/29 01:00:57;;;;;;;48.15;19.83;;;;;;;;;;8289391;28;20383;-67
2021/03/29 01:05:04;;;;;;;50.97;19.55;;;;;;;;;;8299879;28;20501;-66
2021/03/29 01:09:17;;;;;;;57.33;20.27;;;;;;;;;;8291817;28;20056;-66
2021/03/29 01:13:23;;;;;;;51.50;18.30;;;;;;;;;;8291819;28;20056;-66
2021/03/29 01:17:33;;;;;;;48.20;18.33;;;;;;;;;;8290270;28;20486;-66
2021/03/29 01:21:43;;;;;;;43.47;18.30;;;;;;;;;;8290813;28;20348;-66
2021/03/29 01:25:58;;;;;;;49.67;17.08;;;;;;;;;;8289792;28;20476;-66
2021/03/29 01:30:08;;;;;;;45.78;17.15;;;;;;;;;;8289862;28;20094;-66
2021/03/29 01:34:15;;;;;;;48.25;17.63;;;;;;;;;;8290607;28;20467;-66
2021/03/29 01:38:23;;;;;;;45.95;17.17;;;;;;;;;;8289531;28;20052;-67
2021/03/29 01:42:26;;;;;;;44.10;18.48;;;;;;;;;;8288509;28;20083;-67
2021/03/29 01:46:31;;;;;;;49.53;18.40;;;;;;;;;;8290360;28;20379;-67
2021/03/29 01:50:39;;;;;;;52.67;20.50;;;;;;;;;;8293676;28;20431;-68
2021/03/29 01:54:44;;;;;;;55.90;19.73;;;;;;;;;;8296471;28;20363;-68
2021/03/29 01:58:50;;;;;;;52.88;20.35;;;;;;;;;;8278491;28;20387;-67
2021/03/29 02:02:55;;;;;;;68.15;26.73;;;;;;;;;;8294458;28;20466;-66
2021/03/29 02:07:03;;;;;;;61.45;25.65;;;;;;;;;;8297330;28;20045;-67
2021/03/29 02:11:08;;;;;;;60.70;23.97;;;;;;;;;;8294631;28;20364;-67
2021/03/29 02:15:19;;;;;;;47.40;19.70;;;;;;;;;;8295344;28;20517;-66
2021/03/29 02:19:25;;;;;;;67.40;28.70;;;;;;;;;;8296589;28;20071;-67
2021/03/29 02:23:31;;;;;;;67.22;27.63;;;;;;;;;;8295714;28;20486;-67
2021/03/29 02:27:37;;;;;;;65.43;26.73;;;;;;;;;;8294606;28;20455;-67
2021/03/29 02:31:42;;;;;;;74.68;29.25;;;;;;;;;;8294068;28;20471;-67
2021/03/29 02:35:48;;;;;;;76.75;31.73;;;;;;;;;;8293472;28;20356;-68
2021/03/29 02:39:52;;;;;;;69.57;25.95;;;;;;;;;;8294182;28;20070;-67
2021/03/29 02:43:59;;;;;;;78.47;30.00;;;;;;;;;;8297160;28;20367;-67
2021/03/29 02:48:14;;;;;;;72.85;29.50;;;;;;;;;;8295841;28;20352;-68
2021/03/29 02:52:19;;;;;;;58.08;22.33;;;;;;;;;;8293207;28;20083;-67
2021/03/29 02:56:36;;;;;;;47.83;20.90;;;;;;;;;;8294664;28;20049;-67
2021/03/29 03:00:41;;;;;;;60.78;20.40;;;;;;;;;;8294508;28;20486;-68
2021/03/29 03:04:46;;;;;;;46.15;19.30;;;;;;;;;;8292661;28;20533;-67
2021/03/29 03:08:51;;;;;;;47.80;20.15;;;;;;;;;;8292135;28;20394;-67
2021/03/29 03:12:57;;;;;;;56.00;20.88;;;;;;;;;;8295973;28;20455;-68
2021/03/29 03:17:02;;;;;;;47.03;18.17;;;;;;;;;;8293684;28;20487;-67
2021/03/29 03:21:08;;;;;;;51.35;17.27;;;;;;;;;;8292650;28;20490;-67
2021/03/29 03:25:30;;;;;;;122.45;73.90;;;;;;;;;;8294477;28;20435;-67
2021/03/29 03:29:41;;;;;;;88.13;52.42;;;;;;;;;;8295409;28;20467;-69
2021/03/29 03:33:54;;;;;;;54.50;19.08;;;;;;;;;;8293439;28;20359;-67
2021/03/29 03:38:33;;;;;;;50.78;19.60;;;;;;;;;;8294128;28;20479;-67
2021/03/29 03:42:37;;;;;;;;;;;;;;;;;;8293030;28;20088;-68
2021/03/29 03:46:42;;;;;;;56.83;19.08;;;;;;;;;;8292347;28;20334;-68
2021/03/29 03:50:49;;;;;;;58.40;20.50;;;;;;;;;;8291705;28;20052;-68
2021/03/29 03:54:53;;;;;;;70.55;22.15;;;;;;;;;;8292930;28;20359;-68
2021/03/29 03:58:58;;;;;;;60.10;21.27;;;;;;;;;;8291036;28;20485;-68
2021/03/29 04:03:02;;;;;;;46.05;19.10;;;;;;;;;;8293463;28;20374;-68
2021/03/29 04:07:08;;;;;;;40.42;17.08;;;;;;;;;;8292278;28;20466;-68
2021/03/29 04:11:13;;;;;;;46.05;16.25;;;;;;;;;;8291556;28;20056;-69
2021/03/29 04:15:17;;;;;;;46.78;17.23;;;;;;;;;;8294391;28;20463;-68
2021/03/29 04:19:21;;;;;;;53.30;19.42;;;;;;;;;;8291501;28;20368;-68
2021/03/29 04:23:28;;;;;;;58.03;20.80;;;;;;;;;;8291500;28;20367;-69
2021/03/29 04:27:33;;;;;;;51.88;20.42;;;;;;;;;;8291310;28;20471;-68
2021/03/29 04:31:36;;;;;;;65.63;30.08;;;;;;;;;;8291666;28;20049;-69
2021/03/29 04:35:45;;;;;;;60.95;22.98;;;;;;;;;;8293384;28;20467;-69
2021/03/29 04:39:49;;;;;;;60.58;22.08;;;;;;;;;;8291439;28;20483;-68
2021/03/29 04:43:54;;;;;;;66.85;23.63;;;;;;;;;;8290712;28;20367;-68
2021/03/29 04:47:58;;;;;;;54.05;20.02;;;;;;;;;;8305226;28;20483;-68
2021/03/29 04:52:04;;;;;;;65.20;24.85;;;;;;;;;;8290664;28;20379;-68
2021/03/29 04:56:10;;;;;;;64.75;22.17;;;;;;;;;;8291546;28;20406;-70
2021/03/29 05:00:15;;;;;;;78.35;27.13;;;;;;;;;;8291069;28;20386;-70
2021/03/29 05:04:19;;;;;;;92.57;27.85;;;;;;;;;;8290108;28;20052;-69
2021/03/29 05:08:24;;;;;;;62.47;23.83;;;;;;;;;;8289902;28;20476;-69
2021/03/29 05:12:29;;;;;;;68.97;25.88;;;;;;;;;;8290426;28;20490;-68
2021/03/29 05:16:33;;;;;;;66.13;23.02;;;;;;;;;;8290103;28;20071;-68
2021/03/29 05:20:37;;;;;;;65.88;25.75;;;;;;;;;;8289503;28;20482;-70
2021/03/29 05:24:42;;;;;;;81.05;33.58;;;;;;;;;;8289385;28;20596;-69
2021/03/29 05:28:47;;;;;;;66.53;26.52;;;;;;;;;;8290198;28;20355;-68
2021/03/29 05:32:51;;;;;;;58.35;19.92;;;;;;;;;;8292477;28;20493;-69
2021/03/29 05:36:55;;;;;;;55.28;20.98;;;;;;;;;;8290511;28;20379;-68
2021/03/29 05:41:00;;;;;;;66.65;24.08;;;;;;;;;;8290551;28;20053;-68
2021/03/29 05:45:10;;;;;;;72.60;24.20;;;;;;;;;;8289712;28;20414;-68
2021/03/29 05:49:15;;;;;;;67.30;23.13;;;;;;;;;;8289034;28;20490;-68
2021/03/29 05:53:19;;;;;;;71.82;22.95;;;;;;;;;;8288860;28;20506;-68
2021/03/29 05:57:25;;;;;;;53.28;19.55;;;;;;;;;;8290136;28;20333;-69
2021/03/29 06:01:47;;;;;;;60.67;19.85;;;;;;;;;;8292076;28;20474;-70
2021/03/29 06:06:01;;;;;;;52.75;19.20;;;;;;;;;;8291389;28;20088;-69
2021/03/29 06:10:11;;;;;;;53.22;19.83;;;;;;;;;;8290694;28;20497;-69
2021/03/29 06:14:21;;;;;;;56.03;20.77;;;;;;;;;;8289775;28;20459;-69
2021/03/29 06:18:25;;;;;;;52.85;21.55;;;;;;;;;;8290995;28;20378;-68
2021/03/29 06:22:37;;;;;;;57.13;24.17;;;;;;;;;;8289097;28;20049;-68
2021/03/29 06:26:41;;;;;;;54.30;22.25;;;;;;;;;;8292501;28;20440;-69
2021/03/29 06:30:47;;;;;;;58.45;22.70;;;;;;;;;;8289577;28;20367;-69
2021/03/29 06:34:52;;;;;;;49.55;19.73;;;;;;;;;;8290774;28;20398;-69
2021/03/29 06:39:17;;;;;;;47.97;18.20;;;;;;;;;;8295408;28;20391;-70
2021/03/29 06:43:41;;;;;;;45.33;19.23;;;;;;;;;;8295164;28;20466;-69
2021/03/29 06:47:44;;;;;;;36.80;14.93;;;;;;;;;;8296280;28;20111;-69
2021/03/29 06:51:47;;;;;;;39.67;15.10;;;;;;;;;;8295510;28;20360;-68
2021/03/29 06:55:56;;;;;;;32.40;13.82;;;;;;;;;;8295213;28;20474;-69
2021/03/29 07:00:01;;;;;;;38.42;14.02;;;;;;;;;;8297227;28;20070;-69
2021/03/29 07:04:08;;;;;;;30.10;13.68;;;;;;;;;;8294827;28;20383;-69
2021/03/29 07:08:14;;;;;;;40.38;18.75;;;;;;;;;;8293412;28;20374;-69
2021/03/29 07:12:19;;;;;;;35.72;14.45;;;;;;;;;;8295090;28;20510;-69
2021/03/29 07:16:28;;;;;;;42.00;16.65;;;;;;;;;;8294306;28;20044;-69
2021/03/29 07:20:33;;;;;;;52.65;18.02;;;;;;;;;;8293729;28;20597;-69
2021/03/29 07:24:42;;;;;;;47.00;20.27;;;;;;;;;;8294282;28;20368;-69
2021/03/29 07:28:48;;;;;;;550.05;43.90;;;;;;;;;;8295003;28;20379;-69
2021/03/29 07:32:57;;;;;;;46.55;15.77;;;;;;;;;;8295075;28;20468;-69
2021/03/29 07:37:01;;;;;;;40.70;15.27;;;;;;;;;;8295150;28;20375;-70
2021/03/29 07:41:14;;;;;;;43.42;18.02;;;;;;;;;;8294309;28;20379;-70
2021/03/29 07:45:41;;;;;;;37.92;14.77;;;;;;;;;;8294596;28;20078;-69
2021/03/29 07:49:47;;;;;;;40.17;19.60;;;;;;;;;;8293964;28;20485;-70
2021/03/29 07:53:54;;;;;;;85.25;35.45;;;;;;;;;;8291377;28;20375;-70
2021/03/29 07:58:14;;;;;;;39.67;16.50;;;;;;;;;;8294812;28;20111;-69
2021/03/29 08:02:33;;;;;;;51.60;19.92;;;;;;;;;;8292509;28;20497;-69
2021/03/29 08:06:39;;;;;;;39.90;16.58;;;;;;;;;;8294616;28;20485;-69
2021/03/29 08:11:27;;;;;;;42.15;18.00;;;;;;;;;;8275327;28;20372;-70
2021/03/29 08:15:59;;;;;;;39.63;15.30;;;;;;;;;;8294788;28;20471;-70
2021/03/29 08:20:44;;;;;;;38.25;17.35;;;;;;;;;;8292630;28;20138;-70
2021/03/29 08:24:50;;;;;;;36.20;14.98;;;;;;;;;;8256194;28;20451;-69
2021/03/29 08:29:14;;;;;;;36.80;15.75;;;;;;;;;;8257601;28;20360;-70
2021/03/29 08:33:19;;;;;;;24.70;12.15;;;;;;;;;;8240963;28;20483;-70
2021/03/29 08:37:26;;;;;;;26.73;11.18;;;;;;;;;;8256895;28;20071;-69
2021/03/29 08:41:30;;;;;;;37.47;15.70;;;;;;;;;;8256037;28;20345;-69
2021/03/29 08:45:35;;;;;;;29.25;10.45;;;;;;;;;;8239501;28;20507;-70
2021/03/29 08:49:40;;;;;;;31.55;13.55;;;;;;;;;;8253646;28;20478;-69
2021/03/29 08:53:45;;;;;;;25.73;11.70;;;;;;;;;;8239174;28;20498;-69
2021/03/29 08:57:54;;;;;;;31.02;12.68;;;;;;;;;;8261178;28;20071;-70
2021/03/29 09:01:59;;;;;;;27.95;11.00;;;;;;;;;;8257930;28;20459;-70
2021/03/29 09:06:15;;;;;;;33.88;13.07;;;;;;;;;;8259124;28;20373;-69
2021/03/29 09:10:35;;;;;;;39.28;12.02;;;;;;;;;;8242542;28;20378;-70
2021/03/29 09:14:40;;;;;;;26.75;10.77;;;;;;;;;;8257832;28;20370;-70
2021/03/29 09:18:44;;;;;;;26.92;11.10;;;;;;;;;;8273688;28;20479;-70
2021/03/29 09:22:49;;;;;;;21.23;9.05;;;;;;;;;;8259903;28;20337;-71
2021/03/29 09:27:06;;;;;;;22.10;9.40;;;;;;;;;;8256749;28;20049;-71
2021/03/29 09:31:30;;;;;;;20.75;8.90;;;;;;;;;;8257768;28;20506;-70
2021/03/29 09:35:34;;;;;;;31.27;11.98;;;;;;;;;;8256868;28;20049;-70
2021/03/29 09:39:39;;;;;;;21.67;9.05;;;;;;;;;;8240661;28;20365;-70
2021/03/29 09:43:46;;;;;;;21.42;8.55;;;;;;;;;;8259531;28;20470;-70
2021/03/29 09:48:06;;;;;;;24.80;9.98;;;;;;;;;;8258783;28;20414;-71
2021/03/29 09:52:11;;;;;;;27.45;9.80;;;;;;;;;;8292976;28;20410;-71
2021/03/29 09:56:30;;;;;;;28.00;9.40;;;;;;;;;;8290886;28;20485;-71
2021/03/29 10:00:35;;;;;;;19.20;8.95;;;;;;;;;;8293125;28;20354;-70
2021/03/29 10:04:41;;;;;;;25.27;10.60;;;;;;;;;;8275194;28;20375;-70
2021/03/29 10:08:55;;;;;;;20.70;10.75;;;;;;;;;;8289808;28;20360;-70
2021/03/29 10:13:12;;;;;;;24.25;8.75;;;;;;;;;;8297030;28;20053;-72
2021/03/29 10:17:20;;;;;;;27.52;9.32;;;;;;;;;;8295581;28;20471;-71
2021/03/29 10:21:26;;;;;;;23.27;11.77;;;;;;;;;;8294803;28;20455;-74
2021/03/29 10:25:31;;;;;;;19.83;8.15;;;;;;;;;;8296317;28;20451;-71
2021/03/29 10:29:41;;;;;;;15.35;6.60;;;;;;;;;;8295706;28;20485;-69
2021/03/29 10:33:47;;;;;;;17.30;8.02;;;;;;;;;;8297428;28;20070;-70
2021/03/29 10:37:52;;;;;;;17.52;7.43;;;;;;;;;;8295036;28;20054;-71
2021/03/29 10:41:56;;;;;;;13.40;5.00;;;;;;;;;;8294523;28;20479;-70
2021/03/29 10:46:01;;;;;;;13.90;6.07;;;;;;;;;;8299217;28;20063;-71
2021/03/29 10:50:08;;;;;;;15.25;6.20;;;;;;;;;;8294978;28;20340;-70
2021/03/29 10:54:12;;;;;;;27.40;7.27;;;;;;;;;;8294467;28;20466;-70
2021/03/29 10:58:18;;;;;;;19.33;6.15;;;;;;;;;;8296298;28;20048;-69
2021/03/29 11:02:23;;;;;;;18.60;6.90;;;;;;;;;;8296457;28;20316;-69
2021/03/29 11:06:27;;;;;;;18.80;7.22;;;;;;;;;;8295709;28;20485;-70
2021/03/29 11:10:33;;;;;;;16.27;6.80;;;;;;;;;;8294952;28;20391;-70
2021/03/29 11:14:52;;;;;;;16.35;6.22;;;;;;;;;;8295892;28;20481;-72
2021/03/29 11:18:57;;;;;;;17.27;5.75;;;;;;;;;;8293934;28;20477;-72
2021/03/29 11:23:01;;;;;;;22.35;7.22;;;;;;;;;;8294017;28;20362;-70
2021/03/29 11:27:06;;;;;;;19.65;6.63;;;;;;;;;;8296283;28;20453;-69
2021/03/29 11:31:10;;;;;;;20.55;7.15;;;;;;;;;;8294361;28;20463;-70
2021/03/29 11:35:15;;;;;;;17.52;6.43;;;;;;;;;;8309204;28;20466;-71
2021/03/29 11:39:19;;;;;;;14.10;5.57;;;;;;;;;;8291255;28;20459;-71
2021/03/29 11:43:24;;;;;;;14.57;5.22;;;;;;;;;;8291732;28;20363;-70
2021/03/29 11:47:28;;;;;;;19.17;5.50;;;;;;;;;;8307784;28;20382;-73
2021/03/29 11:51:32;;;;;;;11.07;5.18;;;;;;;;;;8293038;28;20479;-70
2021/03/29 11:55:37;;;;;;;33.40;12.25;;;;;;;;;;8292697;28;20401;-70
2021/03/29 11:59:44;;;;;;;35.30;14.80;;;;;;;;;;8296487;28;20359;-70
2021/03/29 12:03:54;;;;;;;25.45;6.95;;;;;;;;;;8293479;28;20349;-70
2021/03/29 12:08:13;;;;;;;19.88;7.82;;;;;;;;;;8276536;28;20064;-71
2021/03/29 12:12:17;;;;;;;22.55;8.38;;;;;;;;;;8293186;28;20479;-70
2021/03/29 12:16:23;;;;;;;26.33;11.10;;;;;;;;;;8294521;28;20459;-70
2021/03/29 12:20:30;;;;;;;46.47;16.63;;;;;;;;;;8291785;28;20481;-70
2021/03/29 12:24:36;;;;;;;46.90;16.83;;;;;;;;;;8291174;28;20068;-70
2021/03/29 12:28:45;;;;;;;50.80;15.77;;;;;;;;;;8291051;28;20074;-70
2021/03/29 12:32:50;;;;;;;107.05;38.00;;;;;;;;;;8289767;28;20483;-72
2021/03/29 12:36:56;;;;;;;467.13;219.40;;;;;;;;;;8289898;28;20390;-71
2021/03/29 12:41:04;;;;;;;315.73;136.93;;;;;;;;;;8290526;28;20477;-71
2021/03/29 12:45:10;;;;;;;172.57;85.53;;;;;;;;;;8289308;28;20526;-71
2021/03/29 12:49:16;;;;;;;28.55;11.65;;;;;;;;;;8289979;28;20485;-70
2021/03/29 12:53:24;;;;;;;30.52;13.10;;;;;;;;;;8290648;28;20410;-70
2021/03/29 12:57:30;;;;;;;71.80;27.85;;;;;;;;;;8288922;28;20064;-71
2021/03/29 13:01:36;;;;;;;53.20;23.25;;;;;;;;;;8291659;28;20067;-70
2021/03/29 13:05:46;;;;;;;75.68;33.92;;;;;;;;;;8288426;28;20463;-71
2021/03/29 13:09:58;;;;;;;37.20;16.23;;;;;;;;;;8291577;28;20044;-71
2021/03/29 13:14:04;;;;;;;19.45;7.75;;;;;;;;;;8289072;28;20080;-70
2021/03/29 13:18:07;;;;;;;20.55;9.02;;;;;;;;;;8292187;28;20447;-71
2021/03/29 13:22:11;;;;;;;16.42;6.97;;;;;;;;;;8291749;28;20053;-71
2021/03/29 13:26:19;;;;;;;18.08;7.45;;;;;;;;;;8293118;28;20490;-71
2021/03/29 13:30:25;;;;;;;37.95;15.75;;;;;;;;;;8288853;28;20478;-71
2021/03/29 13:34:31;;;;;;;67.13;37.28;;;;;;;;;;8291586;28;20333;-71
2021/03/29 13:38:36;;;;;;;73.57;30.52;;;;;;;;;;8290814;28;20463;-70
2021/03/29 13:42:43;;;;;;;54.38;24.35;;;;;;;;;;8290836;28;20061;-70
2021/03/29 13:46:47;;;;;;;55.72;24.33;;;;;;;;;;8294724;28;20443;-71
2021/03/29 13:50:55;;;;;;;28.35;11.00;;;;;;;;;;8293944;28;20067;-72
2021/03/29 13:55:00;;;;;;;21.00;10.10;;;;;;;;;;8294116;28;20053;-72
2021/03/29 13:59:05;;;;;;;24.52;11.10;;;;;;;;;;8296185;28;20386;-71
2021/03/29 14:03:14;;;;;;;42.55;19.10;;;;;;;;;;8310783;28;20041;-70
2021/03/29 14:07:18;;;;;;;27.63;11.43;;;;;;;;;;8295568;28;20491;-70
2021/03/29 14:11:24;;;;;;;27.13;10.98;;;;;;;;;;8296686;28;20048;-71
2021/03/29 14:15:30;;;;;;;54.15;22.60;;;;;;;;;;8293818;28;20471;-70
2021/03/29 14:19:35;;;;;;;29.05;12.60;;;;;;;;;;8295109;28;20060;-71
2021/03/29 14:23:40;;;;;;;45.63;23.88;;;;;;;;;;8295508;28;20463;-71
2021/03/29 14:27:44;;;;;;;64.05;31.40;;;;;;;;;;8295115;28;20379;-71
2021/03/29 14:31:49;;;;;;;65.53;26.83;;;;;;;;;;8294368;28;20056;-71
2021/03/29 14:36:02;;;;;;;51.38;27.10;;;;;;;;;;8292615;28;20515;-71
2021/03/29 14:40:13;;;;;;;30.08;15.07;;;;;;;;;;8293685;28;20052;-71
2021/03/29 14:44:31;;;;;;;47.15;21.00;;;;;;;;;;8296213;28;20378;-71
2021/03/29 14:48:35;;;;;;;;;;;;;;;;;;8294058;28;20064;-71
2021/03/29 14:52:41;;;;;;;49.88;25.60;;;;;;;;;;8292661;28;19920;-72
2021/03/29 14:56:46;;;;;;;54.97;29.15;;;;;;;;;;8295658;28;20478;-73
2021/03/29 15:00:48;;;;;;;35.15;14.98;;;;;;;;;;8293703;28;20337;-71
2021/03/29 15:04:54;;;;;;;53.58;23.13;;;;;;;;;;8294382;28;20467;-71
2021/03/29 15:08:57;;;;;;;42.45;18.23;;;;;;;;;;8291804;28;20359;-71
2021/03/29 15:13:02;;;;;;;46.50;21.88;;;;;;;;;;8293519;28;20483;-73
2021/03/29 15:17:08;;;;;;;77.07;34.92;;;;;;;;;;8293753;28;20048;-72
2021/03/29 15:21:14;;;;;;;42.13;19.85;;;;;;;;;;8292111;28;20040;-72
2021/03/29 15:25:19;;;;;;;43.85;22.40;;;;;;;;;;8293677;28;20471;-72
2021/03/29 15:29:23;;;;;;;35.53;16.25;;;;;;;;;;8292694;28;20071;-72
2021/03/29 15:33:28;;;;;;;38.33;18.90;;;;;;;;;;8293848;28;20087;-72
2021/03/29 15:37:34;;;;;;;32.38;15.00;;;;;;;;;;8292174;28;20044;-72
2021/03/29 15:41:40;;;;;;;30.48;16.88;;;;;;;;;;8295338;28;20079;-72
2021/03/29 15:45:44;;;;;;;39.20;20.73;;;;;;;;;;8291634;28;20459;-72
2021/03/29 15:49:49;;;;;;;92.72;34.50;;;;;;;;;;8291125;28;20353;-72
2021/03/29 15:53:54;;;;;;;74.22;29.63;;;;;;;;;;8292100;28;20470;-72
2021/03/29 15:58:01;;;;;;;92.28;36.85;;;;;;;;;;8292275;28;20106;-72
2021/03/29 16:02:11;;;;;;;86.90;38.03;;;;;;;;;;8292919;28;20482;-72
2021/03/29 16:06:15;;;;;;;81.20;40.20;;;;;;;;;;8290554;28;20406;-72
2021/03/29 16:10:22;;;;;;;69.63;34.05;;;;;;;;;;8293367;28;20502;-72
2021/03/29 16:14:31;;;;;;;58.75;25.67;;;;;;;;;;8294775;28;20418;-73
2021/03/29 16:18:36;;;;;;;60.92;23.42;;;;;;;;;;8291512;28;20502;-73
2021/03/29 16:22:40;;;;;;;49.38;20.48;;;;;;;;;;8291253;28;20390;-72
2021/03/29 16:26:52;;;;;;;37.22;18.00;;;;;;;;;;8289649;28;20482;-71
2021/03/29 16:30:56;;;;;;;40.53;18.60;;;;;;;;;;8290638;28;20471;-72
2021/03/29 16:35:00;;;;;;;34.65;15.73;;;;;;;;;;8290953;28;20489;-71
2021/03/29 16:39:05;;;;;;;47.00;21.42;;;;;;;;;;8306825;28;20467;-72
2021/03/29 16:43:10;;;;;;;53.72;23.92;;;;;;;;;;8292688;28;20371;-71
2021/03/29 16:47:15;;;;;;;54.95;24.88;;;;;;;;;;8290262;28;20082;-72
2021/03/29 16:51:19;;;;;;;133.70;43.58;;;;;;;;;;8291707;28;20360;-72
2021/03/29 16:55:25;;;;;;;92.15;46.85;;;;;;;;;;8305060;28;20045;-71
2021/03/29 16:59:29;;;;;;;58.60;26.13;;;;;;;;;;8290668;28;20490;-73
2021/03/29 17:03:34;;;;;;;66.82;28.90;;;;;;;;;;8290080;28;20364;-72
2021/03/29 17:07:38;;;;;;;50.20;23.88;;;;;;;;;;8290714;28;20463;-72
2021/03/29 17:11:44;;;;;;;70.93;28.88;;;;;;;;;;8289841;28;20041;-71
2021/03/29 17:15:51;;;;;;;35.72;14.57;;;;;;;;;;8288277;28;20463;-72
2021/03/29 17:19:56;;;;;;;24.00;11.15;;;;;;;;;;8288409;28;20351;-72
2021/03/29 17:24:00;;;;;;;22.15;9.77;;;;;;;;;;8289667;28;20444;-71
2021/03/29 17:28:10;;;;;;;27.27;10.13;;;;;;;;;;8291079;28;20127;-71
2021/03/29 17:32:18;;;;;;;28.73;11.40;;;;;;;;;;8288318;28;20358;-72
2021/03/29 17:36:22;;;;;;;28.98;10.65;;;;;;;;;;8288329;28;20362;-71
2021/03/29 17:40:33;;;;;;;28.83;11.65;;;;;;;;;;8273650;28;20076;-72
2021/03/29 17:44:52;;;;;;;25.45;12.02;;;;;;;;;;8288229;28;20060;-72
2021/03/29 17:48:56;;;;;;;27.20;10.95;;;;;;;;;;8288417;28;20477;-72
2021/03/29 17:53:01;;;;;;;31.35;12.63;;;;;;;;;;8289005;28;20363;-72
2021/03/29 17:57:26;;;;;;;27.85;11.20;;;;;;;;;;8289795;28;20464;-72
2021/03/29 18:01:30;;;;;;;33.53;13.40;;;;;;;;;;8289505;28;20503;-72
2021/03/29 18:05:39;;;;;;;63.00;22.10;;;;;;;;;;8290176;28;20497;-72
2021/03/29 18:09:46;;;;;;;63.63;23.92;;;;;;;;;;8289837;28;20451;-72
2021/03/29 18:13:57;;;;;;;53.05;23.30;;;;;;;;;;8287837;28;20371;-73
2021/03/29 18:18:02;;;;;;;70.05;26.42;;;;;;;;;;8290020;28;20356;-72
2021/03/29 18:22:06;;;;;;;58.13;25.35;;;;;;;;;;8289422;28;20442;-72
2021/03/29 18:26:11;;;;;;;41.63;17.70;;;;;;;;;;8289739;28;20379;-72
2021/03/29 18:30:16;;;;;;;42.75;16.50;;;;;;;;;;8288608;28;20410;-74
2021/03/29 18:34:21;;;;;;;40.95;16.23;;;;;;;;;;8296104;28;20475;-72
2021/03/29 18:38:27;;;;;;;38.80;17.50;;;;;;;;;;8294393;28;20383;-72
2021/03/29 18:42:34;;;;;;;39.67;17.15;;;;;;;;;;8293257;28;20382;-72
2021/03/29 18:46:39;;;;;;;43.42;17.75;;;;;;;;;;8292868;28;20366;-73
2021/03/29 18:50:43;;;;;;;43.58;17.05;;;;;;;;;;8294000;28;20386;-73
2021/03/29 18:54:56;;;;;;;42.83;17.52;;;;;;;;;;8293644;28;20410;-72
2021/03/29 18:59:01;;;;;;;39.55;16.90;;;;;;;;;;8295349;28;20526;-72
2021/03/29 19:03:08;;;;;;;48.00;21.10;;;;;;;;;;8294105;28;20360;-74
2021/03/29 19:07:11;;;;;;;42.53;18.30;;;;;;;;;;8295461;28;20406;-72
2021/03/29 19:11:16;;;;;;;186.38;62.03;;;;;;;;;;8291936;28;20471;-75
2021/03/29 19:15:22;;;;;;;94.75;37.72;;;;;;;;;;8293588;28;20461;-73
2021/03/29 19:19:28;;;;;;;116.25;41.38;;;;;;;;;;8294453;28;20441;-73
2021/03/29 19:23:36;;;;;;;107.03;43.90;;;;;;;;;;8291790;28;20056;-73
2021/03/29 19:27:43;;;;;;;82.95;33.40;;;;;;;;;;8292490;28;20332;-73
2021/03/29 19:31:50;;;;;;;91.88;31.95;;;;;;;;;;8293765;28;20057;-73
2021/03/29 19:35:55;;;;;;;63.47;23.90;;;;;;;;;;8292834;28;20045;-72
2021/03/29 19:39:59;;;;;;;76.93;28.98;;;;;;;;;;8290014;28;20359;-72
2021/03/29 19:44:07;;;;;;;80.80;28.30;;;;;;;;;;8275951;28;20348;-73
2021/03/29 19:48:12;;;;;;;72.78;28.08;;;;;;;;;;8291761;28;20452;-73
2021/03/29 19:52:17;;;;;;;81.63;29.73;;;;;;;;;;8292091;28;20491;-74
2021/03/29 19:56:22;;;;;;;77.10;26.42;;;;;;;;;;8291578;28;20413;-73
2021/03/29 20:00:35;;;;;;;59.58;26.33;;;;;;;;;;8291378;28;20448;-72
2021/03/29 20:04:56;;;;;;;51.35;23.77;;;;;;;;;;8306798;28;20493;-73
2021/03/29 20:09:25;;;;;;;53.92;23.60;;;;;;;;;;8276236;28;20328;-73
2021/03/29 20:13:35;;;;;;;52.65;23.42;;;;;;;;;;8276508;28;20495;-73
2021/03/29 20:17:40;;;;;;;53.63;24.17;;;;;;;;;;8291034;28;20447;-73
2021/03/29 20:21:44;;;;;;;52.88;25.02;;;;;;;;;;8291190;28;20383;-73
2021/03/29 20:25:49;;;;;;;43.90;21.83;;;;;;;;;;8274468;28;20112;-74
2021/03/29 20:29:54;;;;;;;45.53;22.67;;;;;;;;;;8291822;28;20052;-73
2021/03/29 20:33:58;;;;;;;52.28;24.45;;;;;;;;;;8275583;28;20444;-73
2021/03/29 20:38:03;;;;;;;103.50;36.33;;;;;;;;;;8291594;28;20071;-73
2021/03/29 20:42:08;;;;;;;99.65;35.67;;;;;;;;;;8291316;28;20444;-73
2021/03/29 20:46:12;;;;;;;56.72;26.85;;;;;;;;;;8289323;28;20074;-73
2021/03/29 20:50:17;;;;;;;68.65;29.48;;;;;;;;;;8292310;28;20386;-74
2021/03/29 20:54:21;;;;;;;53.55;25.67;;;;;;;;;;8290070;28;20045;-73
2021/03/29 20:58:26;;;;;;;55.88;26.67;;;;;;;;;;8291398;28;20410;-75
2021/03/29 21:02:31;;;;;;;61.25;25.67;;;;;;;;;;8290021;28;20060;-74
2021/03/29 21:06:41;;;;;;;55.42;27.40;;;;;;;;;;8290496;28;20378;-74
2021/03/29 21:10:46;;;;;;;47.38;23.75;;;;;;;;;;8290307;28;20074;-74
2021/03/29 21:14:51;;;;;;;45.15;21.88;;;;;;;;;;8290247;28;20379;-74
2021/03/29 21:18:56;;;;;;;50.45;23.83;;;;;;;;;;8290746;28;20463;-74
2021/03/29 21:23:01;;;;;;;47.15;22.60;;;;;;;;;;8290135;28;20507;-75
2021/03/29 21:27:08;;;;;;;45.47;21.70;;;;;;;;;;8288192;28;20071;-74
2021/03/29 21:31:11;;;;;;;43.17;20.73;;;;;;;;;;8287812;28;20478;-74
2021/03/29 21:35:16;;;;;;;52.47;23.55;;;;;;;;;;8289814;28;20470;-74
2021/03/29 21:39:22;;;;;;;49.20;21.63;;;;;;;;;;8292135;28;20366;-74
2021/03/29 21:43:31;;;;;;;53.03;23.17;;;;;;;;;;8288363;28;20463;-74
2021/03/29 21:47:35;;;;;;;43.67;21.35;;;;;;;;;;8290682;28;20447;-74
2021/03/29 21:51:43;;;;;;;41.95;21.73;;;;;;;;;;8290010;28;20456;-75
2021/03/29 21:55:50;;;;;;;43.60;22.10;;;;;;;;;;8289774;28;20074;-73
2021/03/29 21:59:54;;;;;;;41.33;21.15;;;;;;;;;;8289265;28;20402;-74
2021/03/29 22:03:59;;;;;;;36.92;18.98;;;;;;;;;;8290468;28;20492;-74
2021/03/29 22:08:05;;;;;;;42.17;19.70;;;;;;;;;;8308886;28;20395;-74
2021/03/29 22:12:11;;;;;;;44.28;20.20;;;;;;;;;;8298495;28;20466;-74
2021/03/29 22:16:16;;;;;;;40.58;19.33;;;;;;;;;;8297560;28;20379;-74
2021/03/29 22:20:23;;;;;;;32.83;17.67;;;;;;;;;;8295149;28;20394;-75
2021/03/29 22:24:28;;;;;;;38.15;19.42;;;;;;;;;;8293505;28;20082;-74
2021/03/29 22:28:35;;;;;;;38.25;19.42;;;;;;;;;;8294573;28;20490;-74
2021/03/29 22:32:42;;;;;;;45.08;21.73;;;;;;;;;;8294492;28;20466;-75
2021/03/29 22:37:09;;;;;;;57.55;27.00;;;;;;;;;;8294546;28;20382;-75
2021/03/29 22:41:38;;;;;;;58.60;25.83;;;;;;;;;;8291948;28;20382;-75
2021/03/29 22:45:44;;;;;;;53.40;25.63;;;;;;;;;;8294405;28;20495;-75
2021/03/29 22:49:48;;;;;;;57.42;26.05;;;;;;;;;;8294224;28;20052;-75
2021/03/29 22:53:56;;;;;;;58.78;26.60;;;;;;;;;;8276301;28;20359;-74
2021/03/29 22:58:00;;;;;;;56.95;27.10;;;;;;;;;;8294783;28;20067;-75
2021/03/29 23:02:06;;;;;;;54.17;27.15;;;;;;;;;;8294089;28;20379;-75
2021/03/29 23:06:11;;;;;;;49.50;23.73;;;;;;;;;;8293924;28;20398;-74
2021/03/29 23:10:19;;;;;;;72.22;32.33;;;;;;;;;;8293792;28;20368;-75
2021/03/29 23:14:23;;;;;;;68.80;32.90;;;;;;;;;;8294961;28;20471;-75
2021/03/29 23:18:29;;;;;;;69.50;30.13;;;;;;;;;;8292790;28;20501;-76
2021/03/29 23:22:34;;;;;;;95.28;32.72;;;;;;;;;;8292597;28;20367;-74
2021/03/29 23:26:38;;;;;;;150.55;44.88;;;;;;;;;;8291986;28;20378;-74
2021/03/29 23:30:43;;;;;;;110.05;37.08;;;;;;;;;;8295191;28;20391;-74
2021/03/29 23:34:47;;;;;;;232.45;59.15;;;;;;;;;;8293314;28;20371;-76
2021/03/29 23:38:52;;;;;;;166.00;48.05;;;;;;;;;;8292307;28;20067;-74
2021/03/29 23:42:57;;;;;;;64.22;28.52;;;;;;;;;;8292512;28;20056;-75
2021/03/29 23:47:02;;;;;;;124.10;40.70;;;;;;;;;;8292822;28;20418;-75
2021/03/29 23:51:10;;;;;;;78.67;31.07;;;;;;;;;;8292441;28;20378;-74
2021/03/29 23:55:14;;;;;;;56.17;28.08;;;;;;;;;;8294544;28;20366;-74
2021/03/29 23:59:19;;;;;;;57.45;27.80;;;;;;;;;;8292053;28;20490;-74
